sensor_id;sensor_type;location;lat;lon;timestamp;P1;durP1;ratioP1;P2;durP2;ratioP2
69026;SDS011;56080;47.594;19.116;2024-02-26T00:00:19;19.20;;;11.80;;
69026;SDS011;56080;47.594;19.116;2024-02-26T00:10:19;20.70;;;12.10;;
69026;SDS011;56080;47.594;19.116;2024-02-26T00:20:20;18.00;;;11.60;;
69026;SDS011;56080;47.594;19.116;2024-02-26T00:30:21;17.30;;;10.40;;
69026;SDS011;56080;47.594;19.116;2024-02-26T00:40:22;16.80;;;10.10;;
69026;SDS011;56080;47.594;19.116;2024-02-26T00:50:22;16.70;;;10.50;;
69026;SDS011;56080;47.594;19.116;2024-02-26T01:00:23;19.60;;;11.00;;
69026;SDS011;56080;47.594;19.116;2024-02-26T01:10:24;18.00;;;11.00;;
69026;SDS011;56080;47.594;19.116;2024-02-26T01:20:24;17.10;;;10.10;;
69026;SDS011;56080;47.594;19.116;2024-02-26T01:30:27;17.40;;;10.50;;
69026;SDS011;56080;47.594;19.116;2024-02-26T01:40:29;15.30;;;9.50;;
69026;SDS011;56080;47.594;19.116;2024-02-26T01:50:28;14.30;;;8.90;;
69026;SDS011;56080;47.594;19.116;2024-02-26T02:10:33;15.30;;;8.50;;
69026;SDS011;56080;47.594;19.116;2024-02-26T02:20:34;13.60;;;8.50;;
69026;SDS011;56080;47.594;19.116;2024-02-26T02:30:33;11.90;;;6.80;;
69026;SDS011;56080;47.594;19.116;2024-02-26T02:40:31;13.20;;;7.10;;
69026;SDS011;56080;47.594;19.116;2024-02-26T02:50:32;13.10;;;6.80;;
69026;SDS011;56080;47.594;19.116;2024-02-26T03:00:33;12.80;;;7.10;;
69026;SDS011;56080;47.594;19.116;2024-02-26T03:10:34;10.80;;;6.00;;
69026;SDS011;56080;47.594;19.116;2024-02-26T03:20:34;12.30;;;6.50;;
69026;SDS011;56080;47.594;19.116;2024-02-26T03:30:36;13.90;;;7.40;;
69026;SDS011;56080;47.594;19.116;2024-02-26T03:40:36;11.70;;;6.40;;
69026;SDS011;56080;47.594;19.116;2024-02-26T03:50:37;12.30;;;6.60;;
69026;SDS011;56080;47.594;19.116;2024-02-26T04:00:40;12.00;;;6.40;;
69026;SDS011;56080;47.594;19.116;2024-02-26T04:10:39;12.70;;;7.00;;
69026;SDS011;56080;47.594;19.116;2024-02-26T04:20:39;13.30;;;7.90;;
69026;SDS011;56080;47.594;19.116;2024-02-26T04:30:41;15.30;;;8.40;;
69026;SDS011;56080;47.594;19.116;2024-02-26T04:40:42;15.40;;;8.70;;
69026;SDS011;56080;47.594;19.116;2024-02-26T04:50:42;16.90;;;8.90;;
69026;SDS011;56080;47.594;19.116;2024-02-26T05:00:43;16.80;;;8.50;;
69026;SDS011;56080;47.594;19.116;2024-02-26T05:10:45;15.10;;;7.90;;
69026;SDS011;56080;47.594;19.116;2024-02-26T05:20:46;13.50;;;7.80;;
69026;SDS011;56080;47.594;19.116;2024-02-26T05:30:45;14.70;;;7.60;;
69026;SDS011;56080;47.594;19.116;2024-02-26T05:40:46;12.70;;;6.50;;
69026;SDS011;56080;47.594;19.116;2024-02-26T05:50:47;12.60;;;6.60;;
69026;SDS011;56080;47.594;19.116;2024-02-26T06:00:48;13.80;;;7.20;;
69026;SDS011;56080;47.594;19.116;2024-02-26T06:10:49;13.00;;;7.30;;
69026;SDS011;56080;47.594;19.116;2024-02-26T06:20:49;14.70;;;7.60;;
69026;SDS011;56080;47.594;19.116;2024-02-26T06:30:50;15.80;;;7.70;;
69026;SDS011;56080;47.594;19.116;2024-02-26T06:40:51;14.80;;;8.10;;
69026;SDS011;56080;47.594;19.116;2024-02-26T06:50:52;16.30;;;8.70;;
69026;SDS011;56080;47.594;19.116;2024-02-26T07:00:53;16.80;;;9.50;;
69026;SDS011;56080;47.594;19.116;2024-02-26T07:10:54;17.70;;;10.00;;
69026;SDS011;56080;47.594;19.116;2024-02-26T07:20:54;17.60;;;10.50;;
69026;SDS011;56080;47.594;19.116;2024-02-26T07:30:55;22.00;;;13.50;;
69026;SDS011;56080;47.594;19.116;2024-02-26T07:50:57;22.80;;;15.00;;
69026;SDS011;56080;47.594;19.116;2024-02-26T08:00:59;24.60;;;15.10;;
69026;SDS011;56080;47.594;19.116;2024-02-26T08:10:59;25.50;;;16.50;;
69026;SDS011;56080;47.594;19.116;2024-02-26T08:21:00;27.60;;;16.70;;
69026;SDS011;56080;47.594;19.116;2024-02-26T08:31:01;28.10;;;17.80;;
69026;SDS011;56080;47.594;19.116;2024-02-26T08:41:02;27.60;;;17.70;;
69026;SDS011;56080;47.594;19.116;2024-02-26T08:51:07;27.10;;;19.20;;
69026;SDS011;56080;47.594;19.116;2024-02-26T09:01:05;27.50;;;18.50;;
69026;SDS011;56080;47.594;19.116;2024-02-26T09:11:05;28.00;;;19.10;;
69026;SDS011;56080;47.594;19.116;2024-02-26T09:21:06;29.50;;;19.40;;
69026;SDS011;56080;47.594;19.116;2024-02-26T09:31:07;29.10;;;20.50;;
69026;SDS011;56080;47.594;19.116;2024-02-26T09:41:11;30.70;;;20.40;;
69026;SDS011;56080;47.594;19.116;2024-02-26T09:51:10;32.50;;;20.60;;
69026;SDS011;56080;47.594;19.116;2024-02-26T10:01:13;32.10;;;21.50;;
69026;SDS011;56080;47.594;19.116;2024-02-26T10:21:12;29.20;;;19.60;;
69026;SDS011;56080;47.594;19.116;2024-02-26T10:31:13;31.20;;;20.10;;
69026;SDS011;56080;47.594;19.116;2024-02-26T10:41:16;30.50;;;20.60;;
69026;SDS011;56080;47.594;19.116;2024-02-26T10:51:15;29.60;;;19.90;;
69026;SDS011;56080;47.594;19.116;2024-02-26T11:01:17;27.50;;;18.90;;
69026;SDS011;56080;47.594;19.116;2024-02-26T11:11:18;25.40;;;16.90;;
69026;SDS011;56080;47.594;19.116;2024-02-26T11:21:20;27.90;;;18.80;;
69026;SDS011;56080;47.594;19.116;2024-02-26T11:31:20;23.50;;;17.40;;
69026;SDS011;56080;47.594;19.116;2024-02-26T11:41:21;23.70;;;16.90;;
69026;SDS011;56080;47.594;19.116;2024-02-26T11:51:25;20.70;;;15.30;;
69026;SDS011;56080;47.594;19.116;2024-02-26T12:11:27;18.90;;;13.40;;
69026;SDS011;56080;47.594;19.116;2024-02-26T12:21:26;19.90;;;14.50;;
69026;SDS011;56080;47.594;19.116;2024-02-26T12:31:27;12.10;;;8.30;;
69026;SDS011;56080;47.594;19.116;2024-02-26T12:41:28;13.90;;;9.70;;
69026;SDS011;56080;47.594;19.116;2024-02-26T12:51:29;13.20;;;9.30;;
69026;SDS011;56080;47.594;19.116;2024-02-26T13:01:33;12.80;;;8.90;;
69026;SDS011;56080;47.594;19.116;2024-02-26T13:11:32;9.20;;;6.10;;
69026;SDS011;56080;47.594;19.116;2024-02-26T13:21:34;9.10;;;5.20;;
69026;SDS011;56080;47.594;19.116;2024-02-26T13:31:38;8.10;;;5.50;;
69026;SDS011;56080;47.594;19.116;2024-02-26T13:41:36;7.30;;;5.00;;
69026;SDS011;56080;47.594;19.116;2024-02-26T13:51:37;8.20;;;5.00;;
69026;SDS011;56080;47.594;19.116;2024-02-26T14:01:38;8.30;;;5.70;;
69026;SDS011;56080;47.594;19.116;2024-02-26T14:11:40;7.70;;;5.60;;
69026;SDS011;56080;47.594;19.116;2024-02-26T14:21:41;9.10;;;6.80;;
69026;SDS011;56080;47.594;19.116;2024-02-26T14:31:42;9.20;;;6.20;;
69026;SDS011;56080;47.594;19.116;2024-02-26T14:41:44;15.30;;;11.00;;
69026;SDS011;56080;47.594;19.116;2024-02-26T14:51:48;13.40;;;11.90;;
69026;SDS011;56080;47.594;19.116;2024-02-26T15:01:46;14.90;;;12.10;;
69026;SDS011;56080;47.594;19.116;2024-02-26T15:11:48;19.40;;;15.20;;
69026;SDS011;56080;47.594;19.116;2024-02-26T15:21:56;19.10;;;15.00;;
69026;SDS011;56080;47.594;19.116;2024-02-26T15:31:49;16.80;;;13.20;;
69026;SDS011;56080;47.594;19.116;2024-02-26T15:41:50;18.30;;;14.10;;
69026;SDS011;56080;47.594;19.116;2024-02-26T16:01:53;17.10;;;13.40;;
69026;SDS011;56080;47.594;19.116;2024-02-26T16:11:54;16.10;;;12.70;;
69026;SDS011;56080;47.594;19.116;2024-02-26T16:21:55;15.70;;;12.30;;
69026;SDS011;56080;47.594;19.116;2024-02-26T16:31:59;18.20;;;14.50;;
69026;SDS011;56080;47.594;19.116;2024-02-26T16:41:57;18.90;;;14.40;;
69026;SDS011;56080;47.594;19.116;2024-02-26T16:51:58;18.60;;;14.20;;
69026;SDS011;56080;47.594;19.116;2024-02-26T17:01:59;19.40;;;14.40;;
69026;SDS011;56080;47.594;19.116;2024-02-26T17:12:03;22.50;;;15.90;;
69026;SDS011;56080;47.594;19.116;2024-02-26T17:22:02;17.60;;;13.00;;
69026;SDS011;56080;47.594;19.116;2024-02-26T17:32:04;18.20;;;12.90;;
69026;SDS011;56080;47.594;19.116;2024-02-26T17:42:03;16.90;;;12.70;;
69026;SDS011;56080;47.594;19.116;2024-02-26T17:52:05;17.40;;;13.00;;
69026;SDS011;56080;47.594;19.116;2024-02-26T18:02:06;22.10;;;15.50;;
69026;SDS011;56080;47.594;19.116;2024-02-26T18:12:08;27.30;;;19.60;;
69026;SDS011;56080;47.594;19.116;2024-02-26T18:22:09;21.40;;;15.80;;
69026;SDS011;56080;47.594;19.116;2024-02-26T18:32:11;26.00;;;19.20;;
69026;SDS011;56080;47.594;19.116;2024-02-26T18:42:10;25.00;;;17.40;;
69026;SDS011;56080;47.594;19.116;2024-02-26T18:52:13;22.80;;;16.00;;
69026;SDS011;56080;47.594;19.116;2024-02-26T19:02:12;21.50;;;14.80;;
69026;SDS011;56080;47.594;19.116;2024-02-26T19:12:14;20.90;;;14.80;;
69026;SDS011;56080;47.594;19.116;2024-02-26T19:22:16;36.10;;;24.40;;
69026;SDS011;56080;47.594;19.116;2024-02-26T19:32:16;37.30;;;26.40;;
69026;SDS011;56080;47.594;19.116;2024-02-26T19:42:17;38.40;;;26.50;;
69026;SDS011;56080;47.594;19.116;2024-02-26T19:52:17;32.60;;;22.70;;
69026;SDS011;56080;47.594;19.116;2024-02-26T20:02:20;25.90;;;18.10;;
69026;SDS011;56080;47.594;19.116;2024-02-26T20:12:19;31.00;;;21.30;;
69026;SDS011;56080;47.594;19.116;2024-02-26T20:22:21;40.40;;;27.90;;
69026;SDS011;56080;47.594;19.116;2024-02-26T20:32:21;41.40;;;28.60;;
69026;SDS011;56080;47.594;19.116;2024-02-26T20:42:22;50.50;;;32.00;;
69026;SDS011;56080;47.594;19.116;2024-02-26T20:52:23;44.90;;;30.50;;
69026;SDS011;56080;47.594;19.116;2024-02-26T21:02:32;42.90;;;29.70;;
69026;SDS011;56080;47.594;19.116;2024-02-26T21:12:25;41.20;;;27.40;;
69026;SDS011;56080;47.594;19.116;2024-02-26T21:22:25;44.90;;;30.60;;
69026;SDS011;56080;47.594;19.116;2024-02-26T21:32:27;46.90;;;30.90;;
69026;SDS011;56080;47.594;19.116;2024-02-26T21:42:27;44.50;;;29.80;;
69026;SDS011;56080;47.594;19.116;2024-02-26T21:52:28;40.30;;;27.70;;
69026;SDS011;56080;47.594;19.116;2024-02-26T22:02:29;41.50;;;27.50;;
69026;SDS011;56080;47.594;19.116;2024-02-26T22:12:30;42.70;;;29.10;;
69026;SDS011;56080;47.594;19.116;2024-02-26T22:22:30;45.10;;;30.00;;
69026;SDS011;56080;47.594;19.116;2024-02-26T22:32:32;43.80;;;28.40;;
69026;SDS011;56080;47.594;19.116;2024-02-26T22:42:32;44.80;;;29.50;;
69026;SDS011;56080;47.594;19.116;2024-02-26T22:52:33;44.70;;;28.20;;
69026;SDS011;56080;47.594;19.116;2024-02-26T23:02:34;45.60;;;30.70;;
69026;SDS011;56080;47.594;19.116;2024-02-26T23:12:35;43.60;;;28.70;;
69026;SDS011;56080;47.594;19.116;2024-02-26T23:22:36;44.20;;;28.50;;
69026;SDS011;56080;47.594;19.116;2024-02-26T23:32:37;44.30;;;28.20;;
69026;SDS011;56080;47.594;19.116;2024-02-26T23:42:38;42.10;;;29.10;;
69026;SDS011;56080;47.594;19.116;2024-02-26T23:52:39;38.90;;;25.80;;
